sensor_id;sensor_type;location;lat;lon;timestamp;pressure;altitude;pressure_sealevel;temperature;humidity
34297;BME280;20564;42.902;25.336;2023-01-10T00:00:37;96439.94;;;7.55;85.49
34297;BME280;20564;42.902;25.336;2023-01-10T00:03:06;96454.28;;;7.61;82.86
34297;BME280;20564;42.902;25.336;2023-01-10T00:05:37;96440.06;;;7.34;82.08
34297;BME280;20564;42.902;25.336;2023-01-10T00:08:06;96458.81;;;7.30;82.50
34297;BME280;20564;42.902;25.336;2023-01-10T00:10:34;96466.81;;;7.28;81.19
34297;BME280;20564;42.902;25.336;2023-01-10T00:13:01;96454.69;;;7.08;81.38
34297;BME280;20564;42.902;25.336;2023-01-10T00:15:47;96467.75;;;7.08;80.95
34297;BME280;20564;42.902;25.336;2023-01-10T00:18:14;96478.63;;;7.13;80.34
34297;BME280;20564;42.902;25.336;2023-01-10T00:20:41;96482.22;;;7.02;80.11
34297;BME280;20564;42.902;25.336;2023-01-10T00:23:10;96453.84;;;6.97;80.68
34297;BME280;20564;42.902;25.336;2023-01-10T00:25:38;96456.06;;;7.02;82.46
34297;BME280;20564;42.902;25.336;2023-01-10T00:28:05;96467.47;;;7.01;82.49
34297;BME280;20564;42.902;25.336;2023-01-10T00:30:39;96485.94;;;6.99;82.91
34297;BME280;20564;42.902;25.336;2023-01-10T00:33:07;96430.44;;;6.96;84.62
34297;BME280;20564;42.902;25.336;2023-01-10T00:35:34;96456.34;;;6.99;87.18
34297;BME280;20564;42.902;25.336;2023-01-10T00:38:01;96459.91;;;6.88;88.83
34297;BME280;20564;42.902;25.336;2023-01-10T00:40:32;96467.19;;;6.94;90.66
34297;BME280;20564;42.902;25.336;2023-01-10T00:43:00;96502.00;;;6.85;93.01
34297;BME280;20564;42.902;25.336;2023-01-10T00:45:48;96479.97;;;6.78;94.60
34297;BME280;20564;42.902;25.336;2023-01-10T00:48:16;96439.78;;;6.69;97.40
34297;BME280;20564;42.902;25.336;2023-01-10T00:50:43;96444.31;;;6.77;98.21
34297;BME280;20564;42.902;25.336;2023-01-10T00:53:11;96422.13;;;6.71;97.22
34297;BME280;20564;42.902;25.336;2023-01-10T00:55:39;96432.06;;;6.87;96.50
34297;BME280;20564;42.902;25.336;2023-01-10T00:58:06;96397.81;;;6.81;96.33
34297;BME280;20564;42.902;25.336;2023-01-10T01:00:37;96429.19;;;7.00;94.83
34297;BME280;20564;42.902;25.336;2023-01-10T01:03:05;96423.28;;;7.08;93.32
34297;BME280;20564;42.902;25.336;2023-01-10T01:05:39;96413.38;;;7.21;92.04
34297;BME280;20564;42.902;25.336;2023-01-10T01:08:06;96417.63;;;7.41;89.82
34297;BME280;20564;42.902;25.336;2023-01-10T01:10:33;96407.28;;;7.49;88.96
34297;BME280;20564;42.902;25.336;2023-01-10T01:13:13;96398.84;;;7.56;87.60
34297;BME280;20564;42.902;25.336;2023-01-10T01:15:40;96427.88;;;7.91;85.48
34297;BME280;20564;42.902;25.336;2023-01-10T01:18:10;96426.72;;;8.04;83.99
34297;BME280;20564;42.902;25.336;2023-01-10T01:20:39;96439.72;;;7.95;85.87
34297;BME280;20564;42.902;25.336;2023-01-10T01:23:06;96457.25;;;7.85;87.72
34297;BME280;20564;42.902;25.336;2023-01-10T01:25:33;96440.03;;;7.73;87.98
34297;BME280;20564;42.902;25.336;2023-01-10T01:28:00;96454.34;;;7.79;88.14
34297;BME280;20564;42.902;25.336;2023-01-10T01:30:27;96461.53;;;7.86;87.43
34297;BME280;20564;42.902;25.336;2023-01-10T01:32:54;96434.53;;;7.76;88.08
34297;BME280;20564;42.902;25.336;2023-01-10T01:35:22;96447.72;;;7.84;86.86
34297;BME280;20564;42.902;25.336;2023-01-10T01:37:50;96440.97;;;7.91;86.79
34297;BME280;20564;42.902;25.336;2023-01-10T01:40:20;96447.94;;;8.01;87.68
34297;BME280;20564;42.902;25.336;2023-01-10T01:42:48;96429.25;;;7.86;88.97
34297;BME280;20564;42.902;25.336;2023-01-10T01:45:32;96428.56;;;7.93;90.17
34297;BME280;20564;42.902;25.336;2023-01-10T01:48:09;96421.09;;;7.89;90.37
34297;BME280;20564;42.902;25.336;2023-01-10T01:56:03;96414.03;;;7.99;88.44
34297;BME280;20564;42.902;25.336;2023-01-10T01:58:50;96412.66;;;8.05;87.63
34297;BME280;20564;42.902;25.336;2023-01-10T02:01:20;96400.56;;;8.21;86.25
34297;BME280;20564;42.902;25.336;2023-01-10T02:04:42;96387.72;;;8.28;85.24
34297;BME280;20564;42.902;25.336;2023-01-10T02:06:47;96393.47;;;8.41;84.38
34297;BME280;20564;42.902;25.336;2023-01-10T02:11:57;96389.09;;;8.60;84.29
34297;BME280;20564;42.902;25.336;2023-01-10T02:14:29;96380.69;;;8.56;84.20
34297;BME280;20564;42.902;25.336;2023-01-10T02:16:56;96390.81;;;8.69;83.59
34297;BME280;20564;42.902;25.336;2023-01-10T02:19:28;96397.66;;;8.80;83.13
34297;BME280;20564;42.902;25.336;2023-01-10T02:22:26;96365.13;;;8.90;82.64
34297;BME280;20564;42.902;25.336;2023-01-10T02:40:38;96372.09;;;8.82;83.92
34297;BME280;20564;42.902;25.336;2023-01-10T02:43:15;96372.00;;;8.74;84.32
34297;BME280;20564;42.902;25.336;2023-01-10T02:45:46;96385.03;;;8.65;84.83
34297;BME280;20564;42.902;25.336;2023-01-10T02:48:16;96383.75;;;8.52;84.70
34297;BME280;20564;42.902;25.336;2023-01-10T02:50:45;96373.88;;;8.63;85.78
34297;BME280;20564;42.902;25.336;2023-01-10T02:53:28;96372.91;;;8.64;84.02
34297;BME280;20564;42.902;25.336;2023-01-10T03:04:31;96361.88;;;8.61;84.07
34297;BME280;20564;42.902;25.336;2023-01-10T03:07:14;96345.03;;;8.63;83.94
34297;BME280;20564;42.902;25.336;2023-01-10T03:09:59;96349.47;;;8.63;84.46
34297;BME280;20564;42.902;25.336;2023-01-10T03:12:46;96348.94;;;8.59;83.93
34297;BME280;20564;42.902;25.336;2023-01-10T03:15:17;96326.81;;;8.62;84.14
34297;BME280;20564;42.902;25.336;2023-01-10T03:17:49;96327.41;;;8.56;84.81
34297;BME280;20564;42.902;25.336;2023-01-10T03:20:19;96327.50;;;8.64;84.43
34297;BME280;20564;42.902;25.336;2023-01-10T03:22:49;96323.72;;;8.66;83.88
34297;BME280;20564;42.902;25.336;2023-01-10T03:25:19;96317.97;;;8.63;83.77
34297;BME280;20564;42.902;25.336;2023-01-10T03:28:04;96338.13;;;8.62;84.90
34297;BME280;20564;42.902;25.336;2023-01-10T03:30:53;96352.13;;;8.53;85.82
34297;BME280;20564;42.902;25.336;2023-01-10T03:33:28;96351.22;;;8.44;86.80
34297;BME280;20564;42.902;25.336;2023-01-10T03:36:03;96340.72;;;8.44;86.83
34297;BME280;20564;42.902;25.336;2023-01-10T03:38:53;96345.84;;;8.46;86.70
34297;BME280;20564;42.902;25.336;2023-01-10T03:44:37;96300.97;;;8.21;87.78
34297;BME280;20564;42.902;25.336;2023-01-10T03:50:14;96306.66;;;8.17;89.52
34297;BME280;20564;42.902;25.336;2023-01-10T03:52:43;96319.59;;;8.18;90.29
34297;BME280;20564;42.902;25.336;2023-01-10T03:55:14;96317.19;;;8.07;91.68
34297;BME280;20564;42.902;25.336;2023-01-10T03:57:41;96315.63;;;8.14;90.87
34297;BME280;20564;42.902;25.336;2023-01-10T04:00:09;96320.72;;;8.16;91.22
34297;BME280;20564;42.902;25.336;2023-01-10T04:02:36;96309.59;;;8.04;91.12
34297;BME280;20564;42.902;25.336;2023-01-10T04:05:04;96317.34;;;8.06;91.76
34297;BME280;20564;42.902;25.336;2023-01-10T04:07:31;96329.00;;;8.11;91.74
34297;BME280;20564;42.902;25.336;2023-01-10T04:09:59;96328.97;;;8.21;91.94
34297;BME280;20564;42.902;25.336;2023-01-10T04:12:26;96313.06;;;8.05;92.38
34297;BME280;20564;42.902;25.336;2023-01-10T04:14:53;96326.84;;;8.07;92.35
34297;BME280;20564;42.902;25.336;2023-01-10T04:17:20;96323.34;;;8.16;92.51
34297;BME280;20564;42.902;25.336;2023-01-10T04:19:51;96319.31;;;8.21;92.97
34297;BME280;20564;42.902;25.336;2023-01-10T04:22:17;96302.69;;;8.13;93.56
34297;BME280;20564;42.902;25.336;2023-01-10T04:24:44;96335.28;;;8.28;93.57
34297;BME280;20564;42.902;25.336;2023-01-10T04:27:14;96304.69;;;8.19;93.06
34297;BME280;20564;42.902;25.336;2023-01-10T04:29:41;96308.09;;;8.29;93.18
34297;BME280;20564;42.902;25.336;2023-01-10T04:32:08;96307.09;;;8.40;91.72
34297;BME280;20564;42.902;25.336;2023-01-10T04:34:34;96297.19;;;8.34;91.58
34297;BME280;20564;42.902;25.336;2023-01-10T04:37:02;96304.88;;;8.35;91.83
34297;BME280;20564;42.902;25.336;2023-01-10T04:39:29;96307.63;;;8.43;91.54
34297;BME280;20564;42.902;25.336;2023-01-10T04:41:56;96292.69;;;8.44;91.16
34297;BME280;20564;42.902;25.336;2023-01-10T04:44:23;96293.41;;;8.36;91.56
34297;BME280;20564;42.902;25.336;2023-01-10T04:46:50;96299.22;;;8.58;91.31
34297;BME280;20564;42.902;25.336;2023-01-10T04:49:17;96320.22;;;8.58;90.73
34297;BME280;20564;42.902;25.336;2023-01-10T04:51:44;96312.63;;;8.55;91.05
34297;BME280;20564;42.902;25.336;2023-01-10T04:54:10;96296.00;;;8.46;91.81
34297;BME280;20564;42.902;25.336;2023-01-10T04:56:39;96310.41;;;8.60;91.19
34297;BME280;20564;42.902;25.336;2023-01-10T04:59:08;96286.94;;;8.40;91.51
34297;BME280;20564;42.902;25.336;2023-01-10T05:01:35;96274.13;;;8.37;92.22
34297;BME280;20564;42.902;25.336;2023-01-10T05:04:05;96273.41;;;8.35;92.66
34297;BME280;20564;42.902;25.336;2023-01-10T05:06:32;96260.97;;;8.19;94.69
34297;BME280;20564;42.902;25.336;2023-01-10T05:08:59;96275.03;;;8.18;95.14
34297;BME280;20564;42.902;25.336;2023-01-10T05:11:26;96292.81;;;8.25;94.96
34297;BME280;20564;42.902;25.336;2023-01-10T05:13:53;96283.13;;;8.25;94.72
34297;BME280;20564;42.902;25.336;2023-01-10T05:16:20;96269.41;;;8.13;94.50
34297;BME280;20564;42.902;25.336;2023-01-10T05:18:47;96270.91;;;7.98;94.22
34297;BME280;20564;42.902;25.336;2023-01-10T05:21:14;96282.78;;;7.92;97.37
34297;BME280;20564;42.902;25.336;2023-01-10T05:23:41;96275.06;;;7.91;98.09
34297;BME280;20564;42.902;25.336;2023-01-10T05:26:55;96287.44;;;7.98;98.08
34297;BME280;20564;42.902;25.336;2023-01-10T05:30:11;96299.84;;;7.96;98.20
34297;BME280;20564;42.902;25.336;2023-01-10T05:32:52;96283.19;;;7.97;98.95
34297;BME280;20564;42.902;25.336;2023-01-10T05:35:19;96281.31;;;8.08;98.96
34297;BME280;20564;42.902;25.336;2023-01-10T05:37:59;96288.78;;;8.03;98.24
34297;BME280;20564;42.902;25.336;2023-01-10T05:40:26;96296.22;;;8.07;98.58
34297;BME280;20564;42.902;25.336;2023-01-10T05:42:53;96291.03;;;7.97;98.77
34297;BME280;20564;42.902;25.336;2023-01-10T05:45:45;96304.22;;;8.06;99.36
34297;BME280;20564;42.902;25.336;2023-01-10T05:48:13;96290.16;;;8.07;99.37
34297;BME280;20564;42.902;25.336;2023-01-10T05:50:40;96284.13;;;8.24;100.00
34297;BME280;20564;42.902;25.336;2023-01-10T05:53:06;96278.19;;;8.22;100.00
34297;BME280;20564;42.902;25.336;2023-01-10T05:55:33;96284.78;;;8.26;100.00
34297;BME280;20564;42.902;25.336;2023-01-10T05:58:00;96285.91;;;8.24;100.00
34297;BME280;20564;42.902;25.336;2023-01-10T06:00:28;96314.03;;;8.31;100.00
34297;BME280;20564;42.902;25.336;2023-01-10T06:02:56;96319.09;;;8.42;100.00
34297;BME280;20564;42.902;25.336;2023-01-10T06:05:23;96340.31;;;8.67;100.00
34297;BME280;20564;42.902;25.336;2023-01-10T06:07:50;96338.34;;;8.69;100.00
34297;BME280;20564;42.902;25.336;2023-01-10T06:10:17;96334.38;;;8.65;100.00
34297;BME280;20564;42.902;25.336;2023-01-10T06:12:44;96332.81;;;8.72;100.00
34297;BME280;20564;42.902;25.336;2023-01-10T06:15:11;96333.88;;;8.79;100.00
34297;BME280;20564;42.902;25.336;2023-01-10T06:17:38;96342.31;;;8.91;100.00
34297;BME280;20564;42.902;25.336;2023-01-10T06:20:05;96323.81;;;8.92;100.00
34297;BME280;20564;42.902;25.336;2023-01-10T06:22:32;96314.03;;;9.03;100.00
34297;BME280;20564;42.902;25.336;2023-01-10T06:24:59;96317.56;;;9.11;100.00
34297;BME280;20564;42.902;25.336;2023-01-10T06:27:27;96300.09;;;9.02;100.00
34297;BME280;20564;42.902;25.336;2023-01-10T06:29:54;96301.78;;;9.03;100.00
34297;BME280;20564;42.902;25.336;2023-01-10T06:32:22;96295.31;;;8.98;100.00
34297;BME280;20564;42.902;25.336;2023-01-10T06:34:49;96300.63;;;9.06;100.00
34297;BME280;20564;42.902;25.336;2023-01-10T06:37:15;96318.75;;;9.17;100.00
34297;BME280;20564;42.902;25.336;2023-01-10T06:39:45;96295.50;;;9.22;99.88
34297;BME280;20564;42.902;25.336;2023-01-10T06:42:12;96302.44;;;9.31;99.76
34297;BME280;20564;42.902;25.336;2023-01-10T06:44:39;96316.03;;;9.27;99.56
34297;BME280;20564;42.902;25.336;2023-01-10T06:47:05;96325.78;;;9.34;100.00
34297;BME280;20564;42.902;25.336;2023-01-10T06:49:33;96313.94;;;9.30;100.00
34297;BME280;20564;42.902;25.336;2023-01-10T06:51:59;96320.25;;;9.46;99.78
34297;BME280;20564;42.902;25.336;2023-01-10T06:54:26;96311.72;;;9.44;99.78
34297;BME280;20564;42.902;25.336;2023-01-10T06:56:53;96322.13;;;9.53;100.00
34297;BME280;20564;42.902;25.336;2023-01-10T06:59:20;96311.09;;;9.50;99.96
34297;BME280;20564;42.902;25.336;2023-01-10T07:01:47;96308.31;;;9.51;100.00
34297;BME280;20564;42.902;25.336;2023-01-10T07:04:14;96302.56;;;9.48;100.00
34297;BME280;20564;42.902;25.336;2023-01-10T07:06:40;96284.53;;;9.53;100.00
34297;BME280;20564;42.902;25.336;2023-01-10T07:09:07;96286.22;;;9.62;100.00
34297;BME280;20564;42.902;25.336;2023-01-10T07:11:35;96320.66;;;9.85;100.00
34297;BME280;20564;42.902;25.336;2023-01-10T07:14:02;96292.91;;;9.90;100.00
34297;BME280;20564;42.902;25.336;2023-01-10T07:16:29;96292.47;;;10.03;99.58
34297;BME280;20564;42.902;25.336;2023-01-10T07:18:56;96288.72;;;10.06;97.95
34297;BME280;20564;42.902;25.336;2023-01-10T07:21:23;96295.59;;;10.07;98.60
34297;BME280;20564;42.902;25.336;2023-01-10T07:23:51;96304.13;;;10.01;99.37
34297;BME280;20564;42.902;25.336;2023-01-10T07:26:18;96294.31;;;10.11;99.54
34297;BME280;20564;42.902;25.336;2023-01-10T07:28:49;96289.34;;;10.08;99.60
34297;BME280;20564;42.902;25.336;2023-01-10T07:31:18;96289.34;;;10.08;100.00
34297;BME280;20564;42.902;25.336;2023-01-10T07:33:45;96291.66;;;10.03;100.00
34297;BME280;20564;42.902;25.336;2023-01-10T07:36:12;96303.31;;;10.08;100.00
34297;BME280;20564;42.902;25.336;2023-01-10T07:38:43;96278.31;;;9.96;100.00
34297;BME280;20564;42.902;25.336;2023-01-10T07:41:10;96303.63;;;10.05;100.00
34297;BME280;20564;42.902;25.336;2023-01-10T07:43:37;96288.16;;;9.94;100.00
34297;BME280;20564;42.902;25.336;2023-01-10T07:46:06;96297.22;;;10.00;100.00
34297;BME280;20564;42.902;25.336;2023-01-10T07:48:35;96315.66;;;10.08;100.00
34297;BME280;20564;42.902;25.336;2023-01-10T07:51:03;96294.75;;;9.98;100.00
34297;BME280;20564;42.902;25.336;2023-01-10T07:53:30;96299.69;;;10.01;100.00
34297;BME280;20564;42.902;25.336;2023-01-10T07:55:59;96299.56;;;10.11;100.00
34297;BME280;20564;42.902;25.336;2023-01-10T07:58:26;96301.19;;;10.12;100.00
34297;BME280;20564;42.902;25.336;2023-01-10T08:00:57;96294.63;;;10.08;100.00
34297;BME280;20564;42.902;25.336;2023-01-10T08:03:24;96277.53;;;10.04;100.00
34297;BME280;20564;42.902;25.336;2023-01-10T08:06:06;96264.53;;;10.02;100.00
34297;BME280;20564;42.902;25.336;2023-01-10T08:08:36;96288.66;;;9.98;100.00
34297;BME280;20564;42.902;25.336;2023-01-10T08:11:04;96255.28;;;9.90;100.00
34297;BME280;20564;42.902;25.336;2023-01-10T08:13:31;96272.56;;;9.93;100.00
34297;BME280;20564;42.902;25.336;2023-01-10T08:15:59;96252.56;;;9.65;100.00
34297;BME280;20564;42.902;25.336;2023-01-10T08:18:29;96275.88;;;9.69;100.00
34297;BME280;20564;42.902;25.336;2023-01-10T08:20:56;96272.13;;;9.71;100.00
34297;BME280;20564;42.902;25.336;2023-01-10T08:23:23;96262.25;;;9.65;100.00
34297;BME280;20564;42.902;25.336;2023-01-10T08:25:50;96251.97;;;9.46;100.00
34297;BME280;20564;42.902;25.336;2023-01-10T08:28:17;96263.81;;;9.50;100.00
34297;BME280;20564;42.902;25.336;2023-01-10T08:30:44;96254.28;;;9.49;100.00
34297;BME280;20564;42.902;25.336;2023-01-10T08:33:11;96252.69;;;9.56;100.00
34297;BME280;20564;42.902;25.336;2023-01-10T08:35:42;96256.38;;;9.71;100.00
34297;BME280;20564;42.902;25.336;2023-01-10T08:38:10;96247.50;;;9.72;100.00
34297;BME280;20564;42.902;25.336;2023-01-10T08:40:37;96236.03;;;9.81;100.00
34297;BME280;20564;42.902;25.336;2023-01-10T08:43:07;96239.22;;;10.01;100.00
34297;BME280;20564;42.902;25.336;2023-01-10T08:45:35;96225.06;;;9.94;100.00
34297;BME280;20564;42.902;25.336;2023-01-10T08:48:04;96233.66;;;10.12;100.00
34297;BME280;20564;42.902;25.336;2023-01-10T08:50:33;96215.09;;;10.14;100.00
34297;BME280;20564;42.902;25.336;2023-01-10T08:53:00;96213.97;;;10.25;100.00
34297;BME280;20564;42.902;25.336;2023-01-10T08:55:28;96221.72;;;10.26;100.00
34297;BME280;20564;42.902;25.336;2023-01-10T08:58:00;96226.03;;;10.35;100.00
34297;BME280;20564;42.902;25.336;2023-01-10T09:00:28;96215.81;;;10.32;100.00
34297;BME280;20564;42.902;25.336;2023-01-10T09:02:54;96217.81;;;10.38;100.00
34297;BME280;20564;42.902;25.336;2023-01-10T09:05:22;96219.44;;;10.40;100.00
34297;BME280;20564;42.902;25.336;2023-01-10T09:07:58;96208.28;;;10.46;100.00
34297;BME280;20564;42.902;25.336;2023-01-10T09:10:27;96208.28;;;10.46;100.00
34297;BME280;20564;42.902;25.336;2023-01-10T09:12:54;96195.59;;;10.41;100.00
34297;BME280;20564;42.902;25.336;2023-01-10T09:15:25;96190.16;;;10.34;100.00
34297;BME280;20564;42.902;25.336;2023-01-10T09:17:54;96188.88;;;10.38;100.00
34297;BME280;20564;42.902;25.336;2023-01-10T09:20:23;96184.09;;;10.34;100.00
34297;BME280;20564;42.902;25.336;2023-01-10T09:22:50;96176.06;;;10.35;100.00
34297;BME280;20564;42.902;25.336;2023-01-10T09:25:17;96179.31;;;10.29;100.00
34297;BME280;20564;42.902;25.336;2023-01-10T09:27:44;96176.06;;;10.35;100.00
34297;BME280;20564;42.902;25.336;2023-01-10T09:30:11;96178.69;;;10.35;100.00
34297;BME280;20564;42.902;25.336;2023-01-10T09:32:38;96174.22;;;10.44;100.00
34297;BME280;20564;42.902;25.336;2023-01-10T09:35:05;96153.34;;;10.34;100.00
34297;BME280;20564;42.902;25.336;2023-01-10T09:37:32;96156.81;;;10.35;100.00
34297;BME280;20564;42.902;25.336;2023-01-10T09:40:00;96150.06;;;10.32;100.00
34297;BME280;20564;42.902;25.336;2023-01-10T09:42:42;96165.03;;;10.32;100.00
34297;BME280;20564;42.902;25.336;2023-01-10T09:45:43;96156.97;;;10.33;100.00
34297;BME280;20564;42.902;25.336;2023-01-10T09:48:24;96136.22;;;10.22;100.00
34297;BME280;20564;42.902;25.336;2023-01-10T09:50:58;96146.44;;;10.33;100.00
34297;BME280;20564;42.902;25.336;2023-01-10T09:53:32;96133.63;;;10.47;100.00
34297;BME280;20564;42.902;25.336;2023-01-10T09:56:00;96119.50;;;10.40;100.00
34297;BME280;20564;42.902;25.336;2023-01-10T09:58:30;96117.66;;;10.48;100.00
34297;BME280;20564;42.902;25.336;2023-01-10T10:01:20;96117.31;;;10.59;100.00
34297;BME280;20564;42.902;25.336;2023-01-10T10:04:03;96100.72;;;10.59;100.00
34297;BME280;20564;42.902;25.336;2023-01-10T10:06:32;96097.28;;;10.58;100.00
34297;BME280;20564;42.902;25.336;2023-01-10T10:09:02;96093.81;;;10.66;100.00
34297;BME280;20564;42.902;25.336;2023-01-10T10:11:40;96093.66;;;10.68;100.00
34297;BME280;20564;42.902;25.336;2023-01-10T10:14:23;96086.22;;;10.71;100.00
34297;BME280;20564;42.902;25.336;2023-01-10T10:28:41;96063.19;;;10.73;100.00
34297;BME280;20564;42.902;25.336;2023-01-10T10:34:29;96042.47;;;10.70;100.00
34297;BME280;20564;42.902;25.336;2023-01-10T10:37:08;96055.47;;;10.63;100.00
34297;BME280;20564;42.902;25.336;2023-01-10T10:42:12;96048.13;;;10.51;100.00
34297;BME280;20564;42.902;25.336;2023-01-10T10:47:16;96035.84;;;10.35;100.00
34297;BME280;20564;42.902;25.336;2023-01-10T10:49:58;96058.81;;;10.41;100.00
34297;BME280;20564;42.902;25.336;2023-01-10T10:52:34;96043.69;;;10.19;100.00
34297;BME280;20564;42.902;25.336;2023-01-10T10:55:03;96022.50;;;10.12;100.00
34297;BME280;20564;42.902;25.336;2023-01-10T10:57:33;96025.13;;;10.04;100.00
34297;BME280;20564;42.902;25.336;2023-01-10T11:00:09;96029.91;;;10.00;100.00
34297;BME280;20564;42.902;25.336;2023-01-10T11:02:44;96021.88;;;9.85;100.00
34297;BME280;20564;42.902;25.336;2023-01-10T11:05:19;96031.06;;;9.81;100.00
34297;BME280;20564;42.902;25.336;2023-01-10T11:07:47;96027.63;;;9.89;100.00
34297;BME280;20564;42.902;25.336;2023-01-10T11:10:20;96035.69;;;9.87;100.00
34297;BME280;20564;42.902;25.336;2023-01-10T11:16:29;96018.91;;;9.80;100.00
34297;BME280;20564;42.902;25.336;2023-01-10T11:19:19;96020.88;;;9.95;100.00
34297;BME280;20564;42.902;25.336;2023-01-10T11:21:51;96027.63;;;9.81;100.00
34297;BME280;20564;42.902;25.336;2023-01-10T11:24:24;96015.63;;;9.78;100.00
34297;BME280;20564;42.902;25.336;2023-01-10T11:26:51;95996.88;;;9.65;100.00
34297;BME280;20564;42.902;25.336;2023-01-10T11:29:26;96009.69;;;9.68;100.00
34297;BME280;20564;42.902;25.336;2023-01-10T11:31:56;95998.06;;;9.54;100.00
34297;BME280;20564;42.902;25.336;2023-01-10T11:34:28;95993.94;;;9.52;100.00
34297;BME280;20564;42.902;25.336;2023-01-10T11:39:27;96000.31;;;9.49;100.00
34297;BME280;20564;42.902;25.336;2023-01-10T11:41:55;95991.81;;;9.47;100.00
34297;BME280;20564;42.902;25.336;2023-01-10T11:44:28;95993.44;;;9.48;100.00
34297;BME280;20564;42.902;25.336;2023-01-10T11:46:58;96009.38;;;9.55;100.00
34297;BME280;20564;42.902;25.336;2023-01-10T11:49:36;95995.56;;;9.53;100.00
34297;BME280;20564;42.902;25.336;2023-01-10T11:52:22;95995.56;;;9.61;100.00
34297;BME280;20564;42.902;25.336;2023-01-10T11:54:50;95971.63;;;9.48;100.00
34297;BME280;20564;42.902;25.336;2023-01-10T11:57:22;95990.00;;;9.56;100.00
34297;BME280;20564;42.902;25.336;2023-01-10T12:00:01;95998.38;;;9.51;100.00
34297;BME280;20564;42.902;25.336;2023-01-10T12:02:33;95985.72;;;9.47;100.00
34297;BME280;20564;42.902;25.336;2023-01-10T12:05:08;95985.72;;;9.47;100.00
34297;BME280;20564;42.902;25.336;2023-01-10T12:07:55;96007.56;;;9.47;100.00
34297;BME280;20564;42.902;25.336;2023-01-10T12:10:25;95988.81;;;9.26;100.00
34297;BME280;20564;42.902;25.336;2023-01-10T12:12:58;95985.66;;;9.14;100.00
34297;BME280;20564;42.902;25.336;2023-01-10T12:15:30;95995.84;;;9.17;100.00
34297;BME280;20564;42.902;25.336;2023-01-10T12:17:59;95994.84;;;9.10;100.00
34297;BME280;20564;42.902;25.336;2023-01-10T12:20:28;95973.19;;;9.00;100.00
34297;BME280;20564;42.902;25.336;2023-01-10T12:23:15;95987.91;;;8.92;100.00
34297;BME280;20564;42.902;25.336;2023-01-10T12:25:44;95985.75;;;8.88;100.00
34297;BME280;20564;42.902;25.336;2023-01-10T12:28:24;95998.88;;;8.88;100.00
34297;BME280;20564;42.902;25.336;2023-01-10T12:30:52;95990.50;;;8.84;100.00
34297;BME280;20564;42.902;25.336;2023-01-10T12:33:36;95989.34;;;8.79;100.00
34297;BME280;20564;42.902;25.336;2023-01-10T12:45:00;95956.03;;;8.71;100.00
34297;BME280;20564;42.902;25.336;2023-01-10T12:50:49;95986.22;;;8.75;100.00
34297;BME280;20564;42.902;25.336;2023-01-10T12:53:24;95993.25;;;8.75;100.00
34297;BME280;20564;42.902;25.336;2023-01-10T12:55:55;95998.66;;;8.73;100.00
34297;BME280;20564;42.902;25.336;2023-01-10T12:58:43;95997.31;;;8.69;100.00
34297;BME280;20564;42.902;25.336;2023-01-10T13:01:18;96021.94;;;8.76;100.00
34297;BME280;20564;42.902;25.336;2023-01-10T13:03:53;96033.75;;;8.72;100.00
34297;BME280;20564;42.902;25.336;2023-01-10T13:06:30;96028.19;;;8.75;100.00
34297;BME280;20564;42.902;25.336;2023-01-10T13:09:02;96003.91;;;8.73;100.00
34297;BME280;20564;42.902;25.336;2023-01-10T13:11:36;96009.53;;;8.86;100.00
34297;BME280;20564;42.902;25.336;2023-01-10T13:14:10;95996.13;;;8.98;100.00
34297;BME280;20564;42.902;25.336;2023-01-10T13:16:44;95977.25;;;9.02;100.00
34297;BME280;20564;42.902;25.336;2023-01-10T13:21:45;95973.13;;;8.83;100.00
34297;BME280;20564;42.902;25.336;2023-01-10T13:24:27;95989.19;;;8.88;100.00
34297;BME280;20564;42.902;25.336;2023-01-10T13:26:55;96009.88;;;8.91;100.00
34297;BME280;20564;42.902;25.336;2023-01-10T13:29:28;96015.28;;;8.90;100.00
34297;BME280;20564;42.902;25.336;2023-01-10T13:32:00;95976.72;;;8.82;100.00
34297;BME280;20564;42.902;25.336;2023-01-10T13:34:33;95959.69;;;8.86;100.00
34297;BME280;20564;42.902;25.336;2023-01-10T13:37:11;95942.63;;;8.90;100.00
34297;BME280;20564;42.902;25.336;2023-01-10T13:39:40;95968.56;;;8.93;100.00
34297;BME280;20564;42.902;25.336;2023-01-10T13:42:23;95987.91;;;8.92;100.00
34297;BME280;20564;42.902;25.336;2023-01-10T14:03:41;95980.72;;;8.52;100.00
34297;BME280;20564;42.902;25.336;2023-01-10T14:08:51;95974.25;;;8.38;100.00
34297;BME280;20564;42.902;25.336;2023-01-10T14:11:21;96010.97;;;8.38;100.00
34297;BME280;20564;42.902;25.336;2023-01-10T14:13:58;96010.44;;;8.09;100.00
34297;BME280;20564;42.902;25.336;2023-01-10T14:16:44;96036.25;;;8.04;100.00
34297;BME280;20564;42.902;25.336;2023-01-10T14:19:30;96038.31;;;7.74;100.00
34297;BME280;20564;42.902;25.336;2023-01-10T14:21:59;96032.13;;;7.39;100.00
34297;BME280;20564;42.902;25.336;2023-01-10T14:24:39;96049.16;;;7.25;100.00
34297;BME280;20564;42.902;25.336;2023-01-10T14:27:17;96074.13;;;6.92;100.00
34297;BME280;20564;42.902;25.336;2023-01-10T14:29:53;96072.53;;;6.82;100.00
34297;BME280;20564;42.902;25.336;2023-01-10T14:32:34;96066.84;;;6.59;100.00
34297;BME280;20564;42.902;25.336;2023-01-10T14:35:07;96065.75;;;6.51;100.00
34297;BME280;20564;42.902;25.336;2023-01-10T14:37:50;96070.84;;;6.43;100.00
34297;BME280;20564;42.902;25.336;2023-01-10T14:40:33;96082.88;;;6.17;100.00
34297;BME280;20564;42.902;25.336;2023-01-10T14:43:07;96073.56;;;6.04;100.00
34297;BME280;20564;42.902;25.336;2023-01-10T14:45:52;96087.88;;;6.00;100.00
34297;BME280;20564;42.902;25.336;2023-01-10T14:51:25;96084.13;;;5.74;100.00
34297;BME280;20564;42.902;25.336;2023-01-10T14:53:58;96084.50;;;5.40;100.00
34297;BME280;20564;42.902;25.336;2023-01-10T14:56:38;96081.34;;;5.37;100.00
34297;BME280;20564;42.902;25.336;2023-01-10T14:59:25;96087.81;;;5.23;100.00